sensor_id;sensor_type;location;lat;lon;timestamp;P1;durP1;ratioP1;P2;durP2;ratioP2
20611;SDS011;10465;42.686;23.364;2023-08-08T00:01:11;1.13;;;0.50;;
20611;SDS011;10465;42.686;23.364;2023-08-08T00:03:36;0.88;;;0.60;;
20611;SDS011;10465;42.686;23.364;2023-08-08T00:06:02;0.85;;;0.50;;
20611;SDS011;10465;42.686;23.364;2023-08-08T00:08:27;0.60;;;0.55;;
20611;SDS011;10465;42.686;23.364;2023-08-08T00:10:53;0.80;;;0.55;;
20611;SDS011;10465;42.686;23.364;2023-08-08T00:13:18;0.85;;;0.40;;
20611;SDS011;10465;42.686;23.364;2023-08-08T00:15:44;0.90;;;0.52;;
20611;SDS011;10465;42.686;23.364;2023-08-08T00:18:10;0.45;;;0.40;;
20611;SDS011;10465;42.686;23.364;2023-08-08T00:20:36;0.70;;;0.38;;
20611;SDS011;10465;42.686;23.364;2023-08-08T00:23:01;1.23;;;0.52;;
20611;SDS011;10465;42.686;23.364;2023-08-08T00:25:27;0.32;;;0.30;;
20611;SDS011;10465;42.686;23.364;2023-08-08T00:27:52;0.60;;;0.50;;
20611;SDS011;10465;42.686;23.364;2023-08-08T00:30:18;0.73;;;0.50;;
20611;SDS011;10465;42.686;23.364;2023-08-08T00:32:43;0.77;;;0.60;;
20611;SDS011;10465;42.686;23.364;2023-08-08T00:35:09;0.73;;;0.60;;
20611;SDS011;10465;42.686;23.364;2023-08-08T00:37:34;0.50;;;0.40;;
20611;SDS011;10465;42.686;23.364;2023-08-08T00:40:00;0.52;;;0.50;;
20611;SDS011;10465;42.686;23.364;2023-08-08T00:42:25;0.80;;;0.60;;
20611;SDS011;10465;42.686;23.364;2023-08-08T00:44:51;0.98;;;0.70;;
20611;SDS011;10465;42.686;23.364;2023-08-08T00:47:16;0.68;;;0.38;;
20611;SDS011;10465;42.686;23.364;2023-08-08T00:49:42;0.52;;;0.50;;
20611;SDS011;10465;42.686;23.364;2023-08-08T00:52:09;0.80;;;0.43;;
20611;SDS011;10465;42.686;23.364;2023-08-08T00:54:35;0.73;;;0.60;;
20611;SDS011;10465;42.686;23.364;2023-08-08T00:57:00;0.85;;;0.60;;
20611;SDS011;10465;42.686;23.364;2023-08-08T00:59:26;0.47;;;0.43;;
20611;SDS011;10465;42.686;23.364;2023-08-08T01:01:52;0.47;;;0.35;;
20611;SDS011;10465;42.686;23.364;2023-08-08T01:04:18;0.80;;;0.60;;
20611;SDS011;10465;42.686;23.364;2023-08-08T01:09:31;0.95;;;0.70;;
20611;SDS011;10465;42.686;23.364;2023-08-08T01:12:09;0.50;;;0.50;;
20611;SDS011;10465;42.686;23.364;2023-08-08T01:14:38;0.60;;;0.50;;
20611;SDS011;10465;42.686;23.364;2023-08-08T01:17:05;1.40;;;0.88;;
20611;SDS011;10465;42.686;23.364;2023-08-08T01:19:31;0.60;;;0.50;;
20611;SDS011;10465;42.686;23.364;2023-08-08T01:22:03;0.50;;;0.50;;
20611;SDS011;10465;42.686;23.364;2023-08-08T01:24:32;1.13;;;0.60;;
20611;SDS011;10465;42.686;23.364;2023-08-08T01:27:02;0.60;;;0.50;;
20611;SDS011;10465;42.686;23.364;2023-08-08T01:29:28;0.85;;;0.68;;
20611;SDS011;10465;42.686;23.364;2023-08-08T01:31:53;0.50;;;0.50;;
20611;SDS011;10465;42.686;23.364;2023-08-08T01:34:19;0.50;;;0.50;;
20611;SDS011;10465;42.686;23.364;2023-08-08T01:36:46;0.68;;;0.55;;
20611;SDS011;10465;42.686;23.364;2023-08-08T01:39:17;1.88;;;0.85;;
20611;SDS011;10465;42.686;23.364;2023-08-08T01:41:47;2.35;;;0.60;;
20611;SDS011;10465;42.686;23.364;2023-08-08T01:44:13;1.00;;;0.57;;
20611;SDS011;10465;42.686;23.364;2023-08-08T01:46:40;0.80;;;0.68;;
20611;SDS011;10465;42.686;23.364;2023-08-08T01:49:05;0.60;;;0.60;;
20611;SDS011;10465;42.686;23.364;2023-08-08T01:51:31;0.60;;;0.60;;
20611;SDS011;10465;42.686;23.364;2023-08-08T01:53:56;2.05;;;0.80;;
20611;SDS011;10465;42.686;23.364;2023-08-08T01:56:22;2.28;;;0.68;;
20611;SDS011;10465;42.686;23.364;2023-08-08T01:58:47;0.85;;;0.73;;
20611;SDS011;10465;42.686;23.364;2023-08-08T02:01:13;0.80;;;0.70;;
20611;SDS011;10465;42.686;23.364;2023-08-08T02:03:38;0.73;;;0.57;;
20611;SDS011;10465;42.686;23.364;2023-08-08T02:06:04;1.13;;;0.70;;
20611;SDS011;10465;42.686;23.364;2023-08-08T02:08:29;0.70;;;0.70;;
20611;SDS011;10465;42.686;23.364;2023-08-08T02:10:54;0.80;;;0.60;;
20611;SDS011;10465;42.686;23.364;2023-08-08T02:13:20;0.80;;;0.60;;
20611;SDS011;10465;42.686;23.364;2023-08-08T02:15:45;1.00;;;0.70;;
20611;SDS011;10465;42.686;23.364;2023-08-08T02:18:11;0.85;;;0.47;;
20611;SDS011;10465;42.686;23.364;2023-08-08T02:20:36;0.60;;;0.60;;
20611;SDS011;10465;42.686;23.364;2023-08-08T02:23:02;1.23;;;0.75;;
20611;SDS011;10465;42.686;23.364;2023-08-08T02:25:27;0.60;;;0.60;;
20611;SDS011;10465;42.686;23.364;2023-08-08T02:27:53;0.63;;;0.60;;
20611;SDS011;10465;42.686;23.364;2023-08-08T02:30:18;0.95;;;0.88;;
20611;SDS011;10465;42.686;23.364;2023-08-08T02:32:44;1.17;;;0.80;;
20611;SDS011;10465;42.686;23.364;2023-08-08T02:35:09;0.73;;;0.73;;
20611;SDS011;10465;42.686;23.364;2023-08-08T02:37:35;0.82;;;0.60;;
20611;SDS011;10465;42.686;23.364;2023-08-08T02:40:00;1.00;;;0.70;;
20611;SDS011;10465;42.686;23.364;2023-08-08T02:42:26;1.25;;;0.90;;
20611;SDS011;10465;42.686;23.364;2023-08-08T02:44:51;0.70;;;0.70;;
20611;SDS011;10465;42.686;23.364;2023-08-08T02:47:17;0.98;;;0.82;;
20611;SDS011;10465;42.686;23.364;2023-08-08T02:49:42;0.75;;;0.60;;
20611;SDS011;10465;42.686;23.364;2023-08-08T02:52:08;1.02;;;0.77;;
20611;SDS011;10465;42.686;23.364;2023-08-08T02:54:33;0.98;;;0.90;;
20611;SDS011;10465;42.686;23.364;2023-08-08T02:57:00;0.90;;;0.85;;
20611;SDS011;10465;42.686;23.364;2023-08-08T02:59:25;1.00;;;0.85;;
20611;SDS011;10465;42.686;23.364;2023-08-08T03:01:50;1.30;;;1.10;;
20611;SDS011;10465;42.686;23.364;2023-08-08T03:04:16;1.25;;;0.90;;
20611;SDS011;10465;42.686;23.364;2023-08-08T03:06:42;1.20;;;0.90;;
20611;SDS011;10465;42.686;23.364;2023-08-08T03:09:07;1.40;;;1.10;;
20611;SDS011;10465;42.686;23.364;2023-08-08T03:11:33;0.98;;;0.90;;
20611;SDS011;10465;42.686;23.364;2023-08-08T03:13:58;2.42;;;1.00;;
20611;SDS011;10465;42.686;23.364;2023-08-08T03:16:24;1.02;;;0.93;;
20611;SDS011;10465;42.686;23.364;2023-08-08T03:18:49;1.10;;;1.00;;
20611;SDS011;10465;42.686;23.364;2023-08-08T03:21:15;1.40;;;1.20;;
20611;SDS011;10465;42.686;23.364;2023-08-08T03:23:40;2.30;;;0.90;;
20611;SDS011;10465;42.686;23.364;2023-08-08T03:26:06;1.23;;;1.05;;
20611;SDS011;10465;42.686;23.364;2023-08-08T03:28:31;1.23;;;0.98;;
20611;SDS011;10465;42.686;23.364;2023-08-08T03:30:57;1.15;;;1.00;;
20611;SDS011;10465;42.686;23.364;2023-08-08T03:33:22;1.70;;;1.20;;
20611;SDS011;10465;42.686;23.364;2023-08-08T03:35:47;1.45;;;1.25;;
20611;SDS011;10465;42.686;23.364;2023-08-08T03:38:13;2.00;;;1.40;;
20611;SDS011;10465;42.686;23.364;2023-08-08T03:40:38;1.27;;;1.00;;
20611;SDS011;10465;42.686;23.364;2023-08-08T03:43:04;1.92;;;1.38;;
20611;SDS011;10465;42.686;23.364;2023-08-08T03:45:30;1.30;;;1.20;;
20611;SDS011;10465;42.686;23.364;2023-08-08T03:47:55;3.22;;;1.40;;
20611;SDS011;10465;42.686;23.364;2023-08-08T03:50:20;1.63;;;1.52;;
20611;SDS011;10465;42.686;23.364;2023-08-08T03:52:46;1.45;;;1.35;;
20611;SDS011;10465;42.686;23.364;2023-08-08T03:55:11;1.48;;;1.38;;
20611;SDS011;10465;42.686;23.364;2023-08-08T03:57:37;1.77;;;1.50;;
20611;SDS011;10465;42.686;23.364;2023-08-08T04:00:02;2.15;;;1.60;;
20611;SDS011;10465;42.686;23.364;2023-08-08T04:02:29;1.95;;;1.58;;
20611;SDS011;10465;42.686;23.364;2023-08-08T04:04:54;1.60;;;1.50;;
20611;SDS011;10465;42.686;23.364;2023-08-08T04:07:20;2.47;;;1.33;;
20611;SDS011;10465;42.686;23.364;2023-08-08T04:09:45;2.03;;;1.45;;
20611;SDS011;10465;42.686;23.364;2023-08-08T04:12:11;2.33;;;1.80;;
20611;SDS011;10465;42.686;23.364;2023-08-08T04:14:36;1.83;;;1.65;;
20611;SDS011;10465;42.686;23.364;2023-08-08T04:17:01;2.38;;;1.63;;
20611;SDS011;10465;42.686;23.364;2023-08-08T04:19:28;1.85;;;1.60;;
20611;SDS011;10465;42.686;23.364;2023-08-08T04:21:53;1.70;;;1.60;;
20611;SDS011;10465;42.686;23.364;2023-08-08T04:24:19;2.10;;;1.90;;
20611;SDS011;10465;42.686;23.364;2023-08-08T04:26:44;2.03;;;1.80;;
20611;SDS011;10465;42.686;23.364;2023-08-08T04:29:09;2.22;;;1.65;;
20611;SDS011;10465;42.686;23.364;2023-08-08T04:31:35;2.22;;;1.92;;
20611;SDS011;10465;42.686;23.364;2023-08-08T04:34:01;2.33;;;2.00;;
20611;SDS011;10465;42.686;23.364;2023-08-08T04:36:26;2.20;;;1.80;;
20611;SDS011;10465;42.686;23.364;2023-08-08T04:38:52;2.58;;;2.10;;
20611;SDS011;10465;42.686;23.364;2023-08-08T04:41:18;2.78;;;2.58;;
20611;SDS011;10465;42.686;23.364;2023-08-08T04:43:43;2.08;;;1.90;;
20611;SDS011;10465;42.686;23.364;2023-08-08T04:46:09;2.97;;;2.03;;
20611;SDS011;10465;42.686;23.364;2023-08-08T04:48:35;2.22;;;2.00;;
20611;SDS011;10465;42.686;23.364;2023-08-08T04:51:02;2.88;;;2.17;;
20611;SDS011;10465;42.686;23.364;2023-08-08T04:53:27;2.75;;;2.25;;
20611;SDS011;10465;42.686;23.364;2023-08-08T04:55:53;2.50;;;2.03;;
20611;SDS011;10465;42.686;23.364;2023-08-08T04:58:18;2.10;;;1.90;;
20611;SDS011;10465;42.686;23.364;2023-08-08T05:00:44;2.38;;;2.08;;
20611;SDS011;10465;42.686;23.364;2023-08-08T05:03:09;2.65;;;2.17;;
20611;SDS011;10465;42.686;23.364;2023-08-08T05:05:35;1.90;;;1.70;;
20611;SDS011;10465;42.686;23.364;2023-08-08T05:08:00;2.28;;;2.08;;
20611;SDS011;10465;42.686;23.364;2023-08-08T05:10:25;2.95;;;2.17;;
20611;SDS011;10465;42.686;23.364;2023-08-08T05:12:51;2.53;;;2.17;;
20611;SDS011;10465;42.686;23.364;2023-08-08T05:15:16;2.40;;;2.20;;
20611;SDS011;10465;42.686;23.364;2023-08-08T05:17:42;2.00;;;1.90;;
20611;SDS011;10465;42.686;23.364;2023-08-08T05:20:07;3.17;;;2.28;;
20611;SDS011;10465;42.686;23.364;2023-08-08T05:22:34;3.45;;;2.10;;
20611;SDS011;10465;42.686;23.364;2023-08-08T05:24:59;2.05;;;1.85;;
20611;SDS011;10465;42.686;23.364;2023-08-08T05:27:25;2.13;;;1.92;;
20611;SDS011;10465;42.686;23.364;2023-08-08T05:29:51;2.58;;;2.05;;
20611;SDS011;10465;42.686;23.364;2023-08-08T05:32:16;1.92;;;1.73;;
20611;SDS011;10465;42.686;23.364;2023-08-08T05:34:41;2.20;;;2.00;;
20611;SDS011;10465;42.686;23.364;2023-08-08T05:37:07;2.45;;;1.80;;
20611;SDS011;10465;42.686;23.364;2023-08-08T05:39:33;1.98;;;1.70;;
20611;SDS011;10465;42.686;23.364;2023-08-08T05:41:58;2.00;;;1.75;;
20611;SDS011;10465;42.686;23.364;2023-08-08T05:44:23;2.05;;;1.58;;
20611;SDS011;10465;42.686;23.364;2023-08-08T05:46:49;2.17;;;1.70;;
20611;SDS011;10465;42.686;23.364;2023-08-08T05:49:14;3.83;;;3.03;;
20611;SDS011;10465;42.686;23.364;2023-08-08T05:51:40;2.08;;;1.88;;
20611;SDS011;10465;42.686;23.364;2023-08-08T05:54:05;2.55;;;2.30;;
20611;SDS011;10465;42.686;23.364;2023-08-08T05:56:34;1.98;;;1.75;;
20611;SDS011;10465;42.686;23.364;2023-08-08T05:59:03;2.25;;;1.70;;
20611;SDS011;10465;42.686;23.364;2023-08-08T06:01:28;2.13;;;1.92;;
20611;SDS011;10465;42.686;23.364;2023-08-08T06:03:55;1.95;;;1.75;;
20611;SDS011;10465;42.686;23.364;2023-08-08T06:06:20;2.33;;;1.90;;
20611;SDS011;10465;42.686;23.364;2023-08-08T06:08:46;2.33;;;2.13;;
20611;SDS011;10465;42.686;23.364;2023-08-08T06:11:12;2.72;;;2.38;;
20611;SDS011;10465;42.686;23.364;2023-08-08T06:13:37;2.65;;;2.05;;
20611;SDS011;10465;42.686;23.364;2023-08-08T06:16:03;2.05;;;1.85;;
20611;SDS011;10465;42.686;23.364;2023-08-08T06:18:32;3.28;;;2.13;;
20611;SDS011;10465;42.686;23.364;2023-08-08T06:20:58;2.65;;;2.17;;
20611;SDS011;10465;42.686;23.364;2023-08-08T06:23:23;2.33;;;2.13;;
20611;SDS011;10465;42.686;23.364;2023-08-08T06:25:49;2.08;;;1.55;;
20611;SDS011;10465;42.686;23.364;2023-08-08T06:28:14;2.28;;;2.08;;
20611;SDS011;10465;42.686;23.364;2023-08-08T06:30:39;2.78;;;2.25;;
20611;SDS011;10465;42.686;23.364;2023-08-08T06:33:05;2.15;;;1.98;;
20611;SDS011;10465;42.686;23.364;2023-08-08T06:35:30;2.22;;;1.80;;
20611;SDS011;10465;42.686;23.364;2023-08-08T06:37:56;2.13;;;1.92;;
20611;SDS011;10465;42.686;23.364;2023-08-08T06:40:21;2.60;;;1.95;;
20611;SDS011;10465;42.686;23.364;2023-08-08T06:42:48;2.15;;;1.80;;
20611;SDS011;10465;42.686;23.364;2023-08-08T06:45:14;1.98;;;1.73;;
20611;SDS011;10465;42.686;23.364;2023-08-08T06:47:40;2.22;;;1.98;;
20611;SDS011;10465;42.686;23.364;2023-08-08T06:50:05;3.63;;;2.17;;
20611;SDS011;10465;42.686;23.364;2023-08-08T06:52:31;2.30;;;2.10;;
20611;SDS011;10465;42.686;23.364;2023-08-08T06:54:56;3.65;;;2.15;;
20611;SDS011;10465;42.686;23.364;2023-08-08T06:57:22;2.05;;;1.83;;
20611;SDS011;10465;42.686;23.364;2023-08-08T06:59:47;1.75;;;1.65;;
20611;SDS011;10465;42.686;23.364;2023-08-08T07:02:15;1.63;;;1.52;;
20611;SDS011;10465;42.686;23.364;2023-08-08T07:04:43;1.40;;;1.30;;
20611;SDS011;10465;42.686;23.364;2023-08-08T07:07:08;1.65;;;1.55;;
20611;SDS011;10465;42.686;23.364;2023-08-08T07:09:34;1.40;;;1.30;;
20611;SDS011;10465;42.686;23.364;2023-08-08T07:11:59;1.27;;;1.17;;
20611;SDS011;10465;42.686;23.364;2023-08-08T07:14:25;2.25;;;1.65;;
20611;SDS011;10465;42.686;23.364;2023-08-08T07:16:50;1.58;;;1.48;;
20611;SDS011;10465;42.686;23.364;2023-08-08T07:19:16;1.70;;;1.27;;
20611;SDS011;10465;42.686;23.364;2023-08-08T07:21:41;1.67;;;1.58;;
20611;SDS011;10465;42.686;23.364;2023-08-08T07:24:07;1.58;;;1.27;;
20611;SDS011;10465;42.686;23.364;2023-08-08T07:26:32;1.92;;;1.35;;
20611;SDS011;10465;42.686;23.364;2023-08-08T07:28:57;2.78;;;1.63;;
20611;SDS011;10465;42.686;23.364;2023-08-08T07:31:23;1.33;;;1.23;;
20611;SDS011;10465;42.686;23.364;2023-08-08T07:33:49;1.50;;;1.35;;
20611;SDS011;10465;42.686;23.364;2023-08-08T07:36:14;1.98;;;1.73;;
20611;SDS011;10465;42.686;23.364;2023-08-08T07:38:39;2.05;;;1.40;;
20611;SDS011;10465;42.686;23.364;2023-08-08T07:41:05;1.75;;;1.02;;
20611;SDS011;10465;42.686;23.364;2023-08-08T07:43:30;1.30;;;1.02;;
20611;SDS011;10465;42.686;23.364;2023-08-08T07:45:56;1.25;;;1.08;;
20611;SDS011;10465;42.686;23.364;2023-08-08T07:48:22;1.45;;;1.13;;
20611;SDS011;10465;42.686;23.364;2023-08-08T07:50:47;2.22;;;1.05;;
20611;SDS011;10465;42.686;23.364;2023-08-08T07:53:12;1.20;;;1.10;;
20611;SDS011;10465;42.686;23.364;2023-08-08T07:55:38;1.20;;;1.10;;
20611;SDS011;10465;42.686;23.364;2023-08-08T07:58:03;2.30;;;1.10;;
20611;SDS011;10465;42.686;23.364;2023-08-08T08:00:29;1.05;;;0.93;;
20611;SDS011;10465;42.686;23.364;2023-08-08T08:02:54;0.98;;;0.90;;
20611;SDS011;10465;42.686;23.364;2023-08-08T08:05:19;1.30;;;1.13;;
20611;SDS011;10465;42.686;23.364;2023-08-08T08:07:45;1.52;;;1.00;;
20611;SDS011;10465;42.686;23.364;2023-08-08T08:10:11;1.08;;;0.98;;
20611;SDS011;10465;42.686;23.364;2023-08-08T08:12:38;0.82;;;0.82;;
20611;SDS011;10465;42.686;23.364;2023-08-08T08:15:05;1.40;;;1.10;;
20611;SDS011;10465;42.686;23.364;2023-08-08T08:17:31;1.20;;;1.02;;
20611;SDS011;10465;42.686;23.364;2023-08-08T08:19:57;2.28;;;0.95;;
20611;SDS011;10465;42.686;23.364;2023-08-08T08:22:22;1.77;;;1.20;;
20611;SDS011;10465;42.686;23.364;2023-08-08T08:24:48;1.25;;;0.82;;
20611;SDS011;10465;42.686;23.364;2023-08-08T08:27:13;1.40;;;1.00;;
20611;SDS011;10465;42.686;23.364;2023-08-08T08:29:39;1.00;;;0.90;;
20611;SDS011;10465;42.686;23.364;2023-08-08T08:32:04;0.77;;;0.77;;
20611;SDS011;10465;42.686;23.364;2023-08-08T08:34:30;1.05;;;0.95;;
20611;SDS011;10465;42.686;23.364;2023-08-08T08:36:55;1.20;;;1.10;;
20611;SDS011;10465;42.686;23.364;2023-08-08T08:39:22;1.30;;;1.20;;
20611;SDS011;10465;42.686;23.364;2023-08-08T08:41:48;1.13;;;1.00;;
20611;SDS011;10465;42.686;23.364;2023-08-08T08:44:19;1.40;;;1.20;;
20611;SDS011;10465;42.686;23.364;2023-08-08T08:46:47;1.27;;;1.13;;
20611;SDS011;10465;42.686;23.364;2023-08-08T08:49:14;1.42;;;1.30;;
20611;SDS011;10465;42.686;23.364;2023-08-08T08:51:42;1.20;;;1.10;;
20611;SDS011;10465;42.686;23.364;2023-08-08T08:54:08;1.52;;;1.38;;
20611;SDS011;10465;42.686;23.364;2023-08-08T08:56:35;2.45;;;1.35;;
20611;SDS011;10465;42.686;23.364;2023-08-08T08:59:00;1.98;;;1.45;;
20611;SDS011;10465;42.686;23.364;2023-08-08T09:01:26;2.08;;;1.35;;
20611;SDS011;10465;42.686;23.364;2023-08-08T09:03:53;2.83;;;1.17;;
20611;SDS011;10465;42.686;23.364;2023-08-08T09:06:18;2.13;;;1.45;;
20611;SDS011;10465;42.686;23.364;2023-08-08T09:08:46;1.67;;;1.35;;
20611;SDS011;10465;42.686;23.364;2023-08-08T09:11:12;1.88;;;1.33;;
20611;SDS011;10465;42.686;23.364;2023-08-08T09:13:38;1.40;;;1.30;;
20611;SDS011;10465;42.686;23.364;2023-08-08T09:16:08;1.30;;;1.20;;
20611;SDS011;10465;42.686;23.364;2023-08-08T09:18:34;1.25;;;1.15;;
20611;SDS011;10465;42.686;23.364;2023-08-08T09:21:03;2.08;;;1.25;;
20611;SDS011;10465;42.686;23.364;2023-08-08T09:23:29;1.33;;;1.23;;
20611;SDS011;10465;42.686;23.364;2023-08-08T09:25:54;1.63;;;1.30;;
20611;SDS011;10465;42.686;23.364;2023-08-08T09:28:20;1.20;;;1.10;;
20611;SDS011;10465;42.686;23.364;2023-08-08T09:30:45;1.67;;;1.58;;
20611;SDS011;10465;42.686;23.364;2023-08-08T09:33:11;1.27;;;1.15;;
20611;SDS011;10465;42.686;23.364;2023-08-08T09:35:39;1.17;;;1.08;;
20611;SDS011;10465;42.686;23.364;2023-08-08T09:38:05;1.40;;;1.30;;
20611;SDS011;10465;42.686;23.364;2023-08-08T09:40:31;1.42;;;1.13;;
20611;SDS011;10465;42.686;23.364;2023-08-08T09:42:57;1.42;;;1.30;;
20611;SDS011;10465;42.686;23.364;2023-08-08T09:45:23;1.42;;;1.25;;
20611;SDS011;10465;42.686;23.364;2023-08-08T09:47:52;1.83;;;1.40;;
20611;SDS011;10465;42.686;23.364;2023-08-08T09:50:18;1.50;;;1.27;;
20611;SDS011;10465;42.686;23.364;2023-08-08T09:52:45;1.63;;;1.52;;
20611;SDS011;10465;42.686;23.364;2023-08-08T09:55:11;1.42;;;1.33;;
20611;SDS011;10465;42.686;23.364;2023-08-08T09:57:38;1.35;;;1.20;;
20611;SDS011;10465;42.686;23.364;2023-08-08T10:00:04;1.30;;;1.20;;
20611;SDS011;10465;42.686;23.364;2023-08-08T10:02:35;1.50;;;1.40;;
20611;SDS011;10465;42.686;23.364;2023-08-08T10:05:01;1.50;;;1.40;;
20611;SDS011;10465;42.686;23.364;2023-08-08T10:07:29;1.42;;;1.33;;
20611;SDS011;10465;42.686;23.364;2023-08-08T10:09:55;1.67;;;1.58;;
20611;SDS011;10465;42.686;23.364;2023-08-08T10:12:22;1.52;;;1.42;;
20611;SDS011;10465;42.686;23.364;2023-08-08T10:14:48;1.67;;;1.58;;
20611;SDS011;10465;42.686;23.364;2023-08-08T10:17:15;2.08;;;1.60;;
20611;SDS011;10465;42.686;23.364;2023-08-08T10:19:49;1.80;;;1.70;;
20611;SDS011;10465;42.686;23.364;2023-08-08T10:22:22;1.48;;;1.38;;
20611;SDS011;10465;42.686;23.364;2023-08-08T10:24:51;2.15;;;1.80;;
20611;SDS011;10465;42.686;23.364;2023-08-08T10:27:28;1.60;;;1.50;;
20611;SDS011;10465;42.686;23.364;2023-08-08T10:30:00;1.85;;;1.75;;
20611;SDS011;10465;42.686;23.364;2023-08-08T10:32:27;1.60;;;1.50;;
20611;SDS011;10465;42.686;23.364;2023-08-08T10:34:54;1.48;;;1.33;;
20611;SDS011;10465;42.686;23.364;2023-08-08T10:37:22;1.83;;;1.45;;
20611;SDS011;10465;42.686;23.364;2023-08-08T10:39:54;1.90;;;1.70;;
20611;SDS011;10465;42.686;23.364;2023-08-08T10:42:24;1.40;;;1.30;;
20611;SDS011;10465;42.686;23.364;2023-08-08T10:44:54;1.75;;;1.42;;
20611;SDS011;10465;42.686;23.364;2023-08-08T10:47:22;1.38;;;1.27;;
20611;SDS011;10465;42.686;23.364;2023-08-08T10:50:10;2.03;;;1.42;;
20611;SDS011;10465;42.686;23.364;2023-08-08T10:52:59;1.60;;;1.50;;
20611;SDS011;10465;42.686;23.364;2023-08-08T10:58:13;1.48;;;1.30;;
20611;SDS011;10465;42.686;23.364;2023-08-08T11:00:40;1.58;;;1.48;;
20611;SDS011;10465;42.686;23.364;2023-08-08T11:03:06;1.40;;;1.23;;
20611;SDS011;10465;42.686;23.364;2023-08-08T11:05:34;1.30;;;1.20;;
20611;SDS011;10465;42.686;23.364;2023-08-08T11:08:01;1.23;;;1.13;;
20611;SDS011;10465;42.686;23.364;2023-08-08T11:10:28;1.45;;;1.25;;
20611;SDS011;10465;42.686;23.364;2023-08-08T11:13:00;1.13;;;1.02;;
20611;SDS011;10465;42.686;23.364;2023-08-08T11:15:28;1.27;;;1.17;;
20611;SDS011;10465;42.686;23.364;2023-08-08T11:17:57;1.35;;;1.25;;
20611;SDS011;10465;42.686;23.364;2023-08-08T11:20:23;1.17;;;1.08;;
20611;SDS011;10465;42.686;23.364;2023-08-08T11:22:53;1.60;;;1.50;;
20611;SDS011;10465;42.686;23.364;2023-08-08T11:25:19;1.33;;;1.23;;
20611;SDS011;10465;42.686;23.364;2023-08-08T11:27:49;1.30;;;1.10;;
20611;SDS011;10465;42.686;23.364;2023-08-08T11:30:16;1.42;;;1.23;;
20611;SDS011;10465;42.686;23.364;2023-08-08T11:32:41;0.93;;;0.90;;
20611;SDS011;10465;42.686;23.364;2023-08-08T11:35:07;1.15;;;1.00;;
20611;SDS011;10465;42.686;23.364;2023-08-08T11:37:32;1.38;;;1.27;;
20611;SDS011;10465;42.686;23.364;2023-08-08T11:39:58;1.92;;;1.33;;
20611;SDS011;10465;42.686;23.364;2023-08-08T11:42:24;1.20;;;1.10;;
20611;SDS011;10465;42.686;23.364;2023-08-08T11:44:50;1.25;;;1.15;;
20611;SDS011;10465;42.686;23.364;2023-08-08T11:47:16;1.25;;;1.00;;
20611;SDS011;10465;42.686;23.364;2023-08-08T11:49:42;1.98;;;1.42;;
20611;SDS011;10465;42.686;23.364;2023-08-08T11:52:07;1.42;;;1.33;;
20611;SDS011;10465;42.686;23.364;2023-08-08T11:54:33;1.60;;;1.05;;
20611;SDS011;10465;42.686;23.364;2023-08-08T11:57:01;1.38;;;1.20;;
20611;SDS011;10465;42.686;23.364;2023-08-08T11:59:28;1.17;;;1.02;;
20611;SDS011;10465;42.686;23.364;2023-08-08T12:01:55;1.52;;;1.13;;
20611;SDS011;10465;42.686;23.364;2023-08-08T12:04:21;1.30;;;1.20;;
20611;SDS011;10465;42.686;23.364;2023-08-08T12:06:47;1.00;;;0.95;;
20611;SDS011;10465;42.686;23.364;2023-08-08T12:09:12;1.20;;;1.10;;
20611;SDS011;10465;42.686;23.364;2023-08-08T12:11:38;1.02;;;1.00;;
20611;SDS011;10465;42.686;23.364;2023-08-08T12:14:06;1.40;;;1.30;;
20611;SDS011;10465;42.686;23.364;2023-08-08T12:16:33;0.90;;;0.90;;
20611;SDS011;10465;42.686;23.364;2023-08-08T12:19:02;1.35;;;1.10;;
20611;SDS011;10465;42.686;23.364;2023-08-08T12:21:31;1.92;;;1.13;;
20611;SDS011;10465;42.686;23.364;2023-08-08T12:23:58;1.25;;;1.15;;
20611;SDS011;10465;42.686;23.364;2023-08-08T12:26:23;1.20;;;1.10;;
20611;SDS011;10465;42.686;23.364;2023-08-08T12:28:49;0.90;;;0.90;;
20611;SDS011;10465;42.686;23.364;2023-08-08T12:31:16;1.05;;;1.02;;
20611;SDS011;10465;42.686;23.364;2023-08-08T12:33:41;0.93;;;0.90;;
20611;SDS011;10465;42.686;23.364;2023-08-08T12:36:06;1.08;;;0.98;;
20611;SDS011;10465;42.686;23.364;2023-08-08T12:38:32;1.30;;;1.20;;
20611;SDS011;10465;42.686;23.364;2023-08-08T12:41:00;0.90;;;0.90;;
20611;SDS011;10465;42.686;23.364;2023-08-08T12:43:26;0.90;;;0.90;;
20611;SDS011;10465;42.686;23.364;2023-08-08T12:45:52;1.13;;;1.00;;
20611;SDS011;10465;42.686;23.364;2023-08-08T12:48:17;1.30;;;1.00;;
20611;SDS011;10465;42.686;23.364;2023-08-08T12:50:43;1.25;;;1.15;;
20611;SDS011;10465;42.686;23.364;2023-08-08T12:53:08;1.85;;;1.40;;
20611;SDS011;10465;42.686;23.364;2023-08-08T12:55:34;1.15;;;0.90;;
20611;SDS011;10465;42.686;23.364;2023-08-08T12:58:00;1.55;;;0.98;;
20611;SDS011;10465;42.686;23.364;2023-08-08T13:00:27;1.70;;;1.30;;
20611;SDS011;10465;42.686;23.364;2023-08-08T13:02:53;1.20;;;1.10;;
20611;SDS011;10465;42.686;23.364;2023-08-08T13:05:18;1.27;;;1.17;;
20611;SDS011;10465;42.686;23.364;2023-08-08T13:07:44;1.40;;;0.90;;
20611;SDS011;10465;42.686;23.364;2023-08-08T13:10:09;1.23;;;1.13;;
20611;SDS011;10465;42.686;23.364;2023-08-08T13:12:35;1.80;;;1.00;;
20611;SDS011;10465;42.686;23.364;2023-08-08T13:15:01;2.25;;;2.05;;
20611;SDS011;10465;42.686;23.364;2023-08-08T13:17:26;1.92;;;1.42;;
20611;SDS011;10465;42.686;23.364;2023-08-08T13:19:52;1.10;;;1.00;;
20611;SDS011;10465;42.686;23.364;2023-08-08T13:22:17;2.22;;;1.13;;
20611;SDS011;10465;42.686;23.364;2023-08-08T13:24:42;1.05;;;0.95;;
20611;SDS011;10465;42.686;23.364;2023-08-08T13:27:08;1.13;;;0.80;;
20611;SDS011;10465;42.686;23.364;2023-08-08T13:29:33;1.77;;;1.40;;
20611;SDS011;10465;42.686;23.364;2023-08-08T13:31:59;2.15;;;1.95;;
20611;SDS011;10465;42.686;23.364;2023-08-08T13:34:24;1.27;;;1.17;;
20611;SDS011;10465;42.686;23.364;2023-08-08T13:36:50;1.10;;;1.00;;
20611;SDS011;10465;42.686;23.364;2023-08-08T13:39:15;1.23;;;1.10;;
20611;SDS011;10465;42.686;23.364;2023-08-08T13:41:41;0.90;;;0.82;;
20611;SDS011;10465;42.686;23.364;2023-08-08T13:44:06;1.27;;;1.00;;
20611;SDS011;10465;42.686;23.364;2023-08-08T13:46:32;1.02;;;0.93;;
20611;SDS011;10465;42.686;23.364;2023-08-08T13:48:58;1.30;;;1.10;;
20611;SDS011;10465;42.686;23.364;2023-08-08T13:51:23;1.33;;;1.08;;
20611;SDS011;10465;42.686;23.364;2023-08-08T13:53:49;1.67;;;1.35;;
20611;SDS011;10465;42.686;23.364;2023-08-08T13:56:14;1.60;;;1.50;;
20611;SDS011;10465;42.686;23.364;2023-08-08T13:58:40;1.10;;;1.00;;
20611;SDS011;10465;42.686;23.364;2023-08-08T14:01:05;1.23;;;1.13;;
20611;SDS011;10465;42.686;23.364;2023-08-08T14:03:31;1.95;;;1.30;;
20611;SDS011;10465;42.686;23.364;2023-08-08T14:05:57;1.20;;;1.10;;
20611;SDS011;10465;42.686;23.364;2023-08-08T14:08:23;1.25;;;0.93;;
20611;SDS011;10465;42.686;23.364;2023-08-08T14:10:48;1.30;;;1.10;;
20611;SDS011;10465;42.686;23.364;2023-08-08T14:13:14;0.85;;;0.85;;
20611;SDS011;10465;42.686;23.364;2023-08-08T14:15:40;1.10;;;1.00;;
20611;SDS011;10465;42.686;23.364;2023-08-08T14:18:05;1.23;;;1.02;;
20611;SDS011;10465;42.686;23.364;2023-08-08T14:20:32;1.10;;;1.00;;
20611;SDS011;10465;42.686;23.364;2023-08-08T14:22:57;1.17;;;1.08;;
20611;SDS011;10465;42.686;23.364;2023-08-08T14:25:23;1.33;;;1.10;;
20611;SDS011;10465;42.686;23.364;2023-08-08T14:27:48;1.50;;;1.40;;
20611;SDS011;10465;42.686;23.364;2023-08-08T14:30:14;1.10;;;1.10;;
20611;SDS011;10465;42.686;23.364;2023-08-08T14:32:39;1.20;;;0.95;;